Time,TemperatureF,DewpointF,PressureIn,WindDirection,WindDirectionDegrees,WindSpeedMPH,WindSpeedGustMPH,Humidity,HourlyPrecipIn,Conditions,Clouds,dailyrainin,SoftwareType,DateUTC
2013-10-01 00:09:00,63.8,61.0,29.99,SSE,164,0.0,2.0,90,0.00,,,0.01,weatherlink.com 1.10,2013-10-01 04:09:00,
2013-10-01 00:24:00,63.4,61.0,29.99,SSE,164,0.0,2.0,91,0.00,,,0.00,weatherlink.com 1.10,2013-10-01 04:24:00,
2013-10-01 00:39:00,63.1,61.0,29.99,SSE,164,0.0,1.0,91,0.00,,,0.00,weatherlink.com 1.10,2013-10-01 04:39:00,
2013-10-01 00:54:00,62.9,61.0,29.99,SSE,164,0.0,3.0,92,0.00,,,0.00,weatherlink.com 1.10,2013-10-01 04:54:00,
2013-10-01 01:09:00,62.5,60.0,29.99,SSE,164,0.0,3.0,92,0.00,,,0.00,weatherlink.com 1.10,2013-10-01 05:09:00,
2013-10-01 01:24:00,62.4,60.0,29.99,SSE,164,1.0,2.0,92,0.00,,,0.00,weatherlink.com 1.10,2013-10-01 05:24:00,
2013-10-01 01:39:00,62.3,60.0,29.99,SSE,164,0.0,3.0,92,0.00,,,0.00,weatherlink.com 1.10,2013-10-01 05:39:00,
2013-10-01 01:54:00,62.2,60.0,30.00,SSE,164,0.0,2.0,92,0.00,,,0.00,weatherlink.com 1.10,2013-10-01 05:54:00,
2013-10-01 02:09:00,62.1,60.0,30.00,SSE,164,0.0,2.0,92,0.00,,,0.00,weatherlink.com 1.10,2013-10-01 06:09:00,
2013-10-01 02:24:00,62.0,60.0,30.00,SSE,164,0.0,2.0,93,0.00,,,0.00,weatherlink.com 1.10,2013-10-01 06:24:00,
2013-10-01 02:39:00,61.8,60.0,30.00,SSE,164,0.0,1.0,92,0.00,,,0.00,weatherlink.com 1.10,2013-10-01 06:39:00,
2013-10-01 02:54:00,61.4,59.0,30.00,SSE,164,0.0,2.0,92,0.00,,,0.00,weatherlink.com 1.10,2013-10-01 06:54:00,
2013-10-01 03:09:00,61.2,59.0,30.00,SSE,164,0.0,1.0,93,0.00,,,0.00,weatherlink.com 1.10,2013-10-01 07:09:00,
2013-10-01 03:39:00,60.8,59.0,30.00,SSE,164,0.0,0.0,93,0.00,,,0.00,weatherlink.com 1.10,2013-10-01 07:39:00,
2013-10-01 03:54:00,60.5,59.0,30.00,SSE,164,0.0,1.0,93,0.00,,,0.00,weatherlink.com 1.10,2013-10-01 07:54:00,
2013-10-01 04:09:00,60.4,58.0,30.00,SSE,164,0.0,1.0,93,0.00,,,0.00,weatherlink.com 1.10,2013-10-01 08:09:00,
2013-10-01 04:24:00,60.3,58.0,30.00,SSE,164,0.0,2.0,93,0.00,,,0.00,weatherlink.com 1.10,2013-10-01 08:24:00,
2013-10-01 04:39:00,60.1,58.0,30.00,SSE,164,0.0,1.0,93,0.00,,,0.00,weatherlink.com 1.10,2013-10-01 08:39:00,
2013-10-01 04:54:00,59.9,58.0,30.00,SSE,164,0.0,1.0,93,0.00,,,0.00,weatherlink.com 1.10,2013-10-01 08:54:00,
2013-10-01 05:24:00,59.2,58.0,30.01,SSE,164,0.0,2.0,94,0.00,,,0.00,weatherlink.com 1.10,2013-10-01 09:24:00,
2013-10-01 05:39:00,59.1,57.0,30.02,SSE,164,0.0,0.0,94,0.00,,,0.00,weatherlink.com 1.10,2013-10-01 09:39:00,
2013-10-01 05:54:00,58.8,57.0,30.02,SSE,164,1.0,2.0,94,0.00,,,0.00,weatherlink.com 1.10,2013-10-01 09:54:00,
2013-10-01 06:09:00,58.4,57.0,30.02,SSE,164,0.0,2.0,94,0.00,,,0.00,weatherlink.com 1.10,2013-10-01 10:09:00,
2013-10-01 06:25:00,58.4,57.0,30.03,SSE,164,0.0,1.0,94,0.00,,,0.00,weatherlink.com 1.10,2013-10-01 10:25:00,
2013-10-01 06:40:00,58.2,57.0,30.03,SSE,163,0.0,1.0,94,0.00,,,0.00,weatherlink.com 1.10,2013-10-01 10:40:00,
2013-10-01 06:55:00,58.6,57.0,30.04,SSE,163,0.0,1.0,94,0.00,,,0.00,weatherlink.com 1.10,2013-10-01 10:55:00,
2013-10-01 07:10:00,58.6,57.0,30.04,SSE,163,0.0,1.0,94,0.00,,,0.00,weatherlink.com 1.10,2013-10-01 11:10:00,
2013-10-01 07:25:00,58.4,57.0,30.04,SSE,163,0.0,2.0,94,0.00,,,0.00,weatherlink.com 1.10,2013-10-01 11:25:00,
2013-10-01 07:40:00,58.5,57.0,30.04,SSE,163,0.0,0.0,94,0.00,,,0.00,weatherlink.com 1.10,2013-10-01 11:40:00,
2013-10-01 07:55:00,58.4,57.0,30.05,SSE,163,0.0,0.0,94,0.00,,,0.00,weatherlink.com 1.10,2013-10-01 11:55:00,
2013-10-01 08:10:00,58.9,57.0,30.05,SSE,163,0.0,2.0,94,0.00,,,0.00,weatherlink.com 1.10,2013-10-01 12:10:00,
2013-10-01 08:25:00,59.2,58.0,30.06,SSE,163,0.0,1.0,94,0.00,,,0.00,weatherlink.com 1.10,2013-10-01 12:25:00,
2013-10-01 08:40:00,59.5,58.0,30.07,SSE,163,0.0,1.0,94,0.00,,,0.00,weatherlink.com 1.10,2013-10-01 12:40:00,
2013-10-01 08:55:00,59.9,58.0,30.06,SSE,163,0.0,1.0,94,0.00,,,0.00,weatherlink.com 1.10,2013-10-01 12:55:00,
2013-10-01 09:10:00,60.6,59.0,30.07,SSE,163,0.0,1.0,94,0.00,,,0.00,weatherlink.com 1.10,2013-10-01 13:10:00,
2013-10-01 09:25:00,61.9,60.0,30.06,SSE,163,0.0,2.0,94,0.00,,,0.00,weatherlink.com 1.10,2013-10-01 13:25:00,
2013-10-01 09:40:00,63.5,61.0,30.07,SSE,163,0.0,2.0,91,0.00,,,0.00,weatherlink.com 1.10,2013-10-01 13:40:00,
2013-10-01 09:55:00,65.2,62.0,30.07,SSE,162,0.0,2.0,88,0.00,,,0.00,weatherlink.com 1.10,2013-10-01 13:55:00,
2013-10-01 10:25:00,67.8,63.0,30.07,SSE,160,0.0,2.0,83,0.00,,,0.00,weatherlink.com 1.10,2013-10-01 14:25:00,
2013-10-01 10:40:00,70.2,63.0,30.07,SE,127,0.0,4.0,79,0.00,,,0.00,weatherlink.com 1.10,2013-10-01 14:40:00,
2013-10-01 10:55:00,72.1,64.0,30.07,ESE,102,2.0,6.0,76,0.00,,,0.00,weatherlink.com 1.10,2013-10-01 14:55:00,
2013-10-01 11:10:00,72.8,63.0,30.06,SSW,195,9.0,9.0,72,0.00,,,0.00,weatherlink.com 1.10,2013-10-01 15:10:00,
2013-10-01 11:25:00,72.4,62.0,30.06,South,184,4.0,10.0,70,0.00,,,0.00,weatherlink.com 1.10,2013-10-01 15:25:00,
2013-10-01 11:40:00,72.7,62.0,30.06,WSW,242,7.0,10.0,69,0.00,,,0.00,weatherlink.com 1.10,2013-10-01 15:40:00,
2013-10-01 11:55:00,73.3,63.0,30.05,South,189,2.0,9.0,69,0.00,,,0.00,weatherlink.com 1.10,2013-10-01 15:55:00,
2013-10-01 12:10:00,73.5,62.0,30.05,SSW,196,6.0,10.0,68,0.00,,,0.00,weatherlink.com 1.10,2013-10-01 16:10:00,
2013-10-01 12:25:00,73.5,62.0,30.05,SSW,196,5.0,11.0,68,0.00,,,0.00,weatherlink.com 1.10,2013-10-01 16:25:00,
2013-10-01 12:40:00,73.8,62.0,30.05,South,186,6.0,8.0,67,0.00,,,0.00,weatherlink.com 1.10,2013-10-01 16:40:00,
2013-10-01 12:55:00,74.4,62.0,30.05,South,188,4.0,8.0,66,0.00,,,0.00,weatherlink.com 1.10,2013-10-01 16:55:00,
2013-10-01 13:10:00,75.4,63.0,30.04,East,90,3.0,4.0,65,0.00,,,0.00,weatherlink.com 1.10,2013-10-01 17:10:00,
2013-10-01 13:25:00,75.5,62.0,30.04,SW,217,2.0,7.0,64,0.00,,,0.00,weatherlink.com 1.10,2013-10-01 17:25:00,
2013-10-01 13:41:00,77.0,62.0,30.03,ESE,108,4.0,10.0,61,0.00,,,0.00,weatherlink.com 1.10,2013-10-01 17:41:00,
2013-10-01 13:56:00,77.0,62.0,30.03,South,175,7.0,10.0,60,0.00,,,0.00,weatherlink.com 1.10,2013-10-01 17:56:00,
2013-10-01 14:11:00,76.4,62.0,30.02,SW,226,8.0,10.0,62,0.00,,,0.00,weatherlink.com 1.10,2013-10-01 18:11:00,
2013-10-01 14:26:00,77.0,63.0,30.02,South,183,3.0,8.0,62,0.00,,,0.00,weatherlink.com 1.10,2013-10-01 18:26:00,
2013-10-01 14:41:00,76.7,63.0,30.01,South,186,4.0,10.0,62,0.00,,,0.00,weatherlink.com 1.10,2013-10-01 18:41:00,
2013-10-01 14:56:00,77.1,62.0,30.01,South,186,9.0,10.0,60,0.00,,,0.00,weatherlink.com 1.10,2013-10-01 18:56:00,
2013-10-01 15:11:00,77.3,62.0,30.01,SW,226,1.0,9.0,60,0.00,,,0.00,weatherlink.com 1.10,2013-10-01 19:11:00,
2013-10-01 15:26:00,77.8,62.0,30.00,South,182,4.0,10.0,59,0.00,,,0.00,weatherlink.com 1.10,2013-10-01 19:26:00,
2013-10-01 15:41:00,78.0,63.0,30.00,South,189,3.0,10.0,60,0.00,,,0.00,weatherlink.com 1.10,2013-10-01 19:41:00,
2013-10-01 15:56:00,78.4,63.0,30.00,SSE,160,2.0,10.0,59,0.00,,,0.00,weatherlink.com 1.10,2013-10-01 19:56:00,
2013-10-01 16:11:00,78.0,63.0,30.00,SW,216,0.0,6.0,60,0.00,,,0.00,weatherlink.com 1.10,2013-10-01 20:11:00,
2013-10-01 16:26:00,78.6,63.0,30.00,South,184,3.0,6.0,59,0.00,,,0.00,weatherlink.com 1.10,2013-10-01 20:26:00,
2013-10-01 16:41:00,78.3,63.0,30.00,SW,228,8.0,9.0,59,0.00,,,0.00,weatherlink.com 1.10,2013-10-01 20:41:00,
2013-10-01 16:56:00,78.1,63.0,30.00,South,188,2.0,6.0,61,0.00,,,0.00,weatherlink.com 1.10,2013-10-01 20:56:00,
2013-10-01 17:11:00,78.0,63.0,29.99,SSW,195,0.0,5.0,61,0.00,,,0.00,weatherlink.com 1.10,2013-10-01 21:11:00,
2013-10-01 17:26:00,78.7,63.0,29.99,SSE,156,4.0,7.0,59,0.00,,,0.00,weatherlink.com 1.10,2013-10-01 21:26:00,
2013-10-01 17:41:00,78.5,63.0,29.99,South,170,1.0,7.0,60,0.00,,,0.00,weatherlink.com 1.10,2013-10-01 21:41:00,
2013-10-01 17:56:00,77.8,64.0,29.99,South,171,3.0,7.0,62,0.00,,,0.00,weatherlink.com 1.10,2013-10-01 21:56:00,
2013-10-01 18:11:00,78.3,64.0,29.99,South,187,6.0,6.0,61,0.00,,,0.00,weatherlink.com 1.10,2013-10-01 22:11:00,
2013-10-01 18:26:00,77.9,63.0,29.99,South,179,2.0,6.0,60,0.00,,,0.00,weatherlink.com 1.10,2013-10-01 22:26:00,
2013-10-01 18:41:00,77.1,63.0,30.00,South,184,0.0,5.0,63,0.00,,,0.00,weatherlink.com 1.10,2013-10-01 22:41:00,
2013-10-01 18:56:00,76.8,63.0,29.99,South,169,2.0,3.0,63,0.00,,,0.00,weatherlink.com 1.10,2013-10-01 22:56:00,
2013-10-01 19:11:00,76.0,63.0,30.00,South,171,1.0,5.0,64,0.00,,,0.00,weatherlink.com 1.10,2013-10-01 23:11:00,
2013-10-01 19:26:00,75.3,63.0,30.00,South,171,0.0,1.0,66,0.00,,,0.00,weatherlink.com 1.10,2013-10-01 23:26:00,
2013-10-01 19:41:00,74.4,63.0,30.00,South,171,0.0,2.0,67,0.00,,,0.00,weatherlink.com 1.10,2013-10-01 23:41:00,
2013-10-01 19:56:00,73.4,63.0,30.00,South,171,0.0,1.0,70,0.00,,,0.00,weatherlink.com 1.10,2013-10-01 23:56:00,
2013-10-01 20:11:00,71.8,64.0,30.01,South,171,0.0,1.0,75,0.00,,,0.00,weatherlink.com 1.10,2013-10-02 00:11:00,
2013-10-01 20:26:00,70.3,63.0,30.01,South,171,0.0,2.0,78,0.00,,,0.00,weatherlink.com 1.10,2013-10-02 00:26:00,
2013-10-01 20:41:00,69.4,63.0,30.01,South,171,0.0,1.0,81,0.00,,,0.00,weatherlink.com 1.10,2013-10-02 00:41:00,
2013-10-01 20:56:00,68.8,63.0,30.02,South,171,0.0,2.0,82,0.00,,,0.00,weatherlink.com 1.10,2013-10-02 00:56:00,
2013-10-01 21:11:00,68.4,63.0,30.02,South,171,0.0,2.0,83,0.00,,,0.00,weatherlink.com 1.10,2013-10-02 01:11:00,
2013-10-01 21:26:00,68.0,63.0,30.02,South,171,0.0,1.0,83,0.00,,,0.00,weatherlink.com 1.10,2013-10-02 01:26:00,
2013-10-01 21:41:00,67.6,63.0,30.02,SSE,160,0.0,4.0,84,0.00,,,0.00,weatherlink.com 1.10,2013-10-02 01:41:00,
2013-10-01 21:56:00,67.2,62.0,30.02,SE,128,0.0,5.0,84,0.00,,,0.00,weatherlink.com 1.10,2013-10-02 01:56:00,
2013-10-01 22:11:00,66.5,62.0,30.02,ESE,117,1.0,3.0,85,0.00,,,0.00,weatherlink.com 1.10,2013-10-02 02:11:00,
2013-10-01 22:26:00,66.1,62.0,30.03,SE,129,0.0,4.0,86,0.00,,,0.00,weatherlink.com 1.10,2013-10-02 02:26:00,
2013-10-01 22:41:00,65.8,62.0,30.03,SE,129,1.0,2.0,87,0.00,,,0.00,weatherlink.com 1.10,2013-10-02 02:41:00,
2013-10-01 22:56:00,65.4,62.0,30.03,SE,132,0.0,2.0,87,0.00,,,0.00,weatherlink.com 1.10,2013-10-02 02:56:00,
2013-10-01 23:11:00,65.0,61.0,30.03,SE,132,0.0,2.0,88,0.00,,,0.00,weatherlink.com 1.10,2013-10-02 03:11:00,
2013-10-01 23:26:00,64.7,61.0,30.03,SE,132,0.0,2.0,88,0.00,,,0.00,weatherlink.com 1.10,2013-10-02 03:26:00,
2013-10-01 23:41:00,64.3,61.0,30.03,SE,132,0.0,3.0,89,0.00,,,0.00,weatherlink.com 1.10,2013-10-02 03:41:00,
2013-10-01 23:56:00,64.1,61.0,30.03,SE,132,1.0,3.0,89,0.00,,,0.00,weatherlink.com 1.10,2013-10-02 03:56:00,